sensor_id;sensor_type;location;lat;lon;timestamp;pressure;altitude;pressure_sealevel;temperature;humidity
692;BME280;70475;50.084;8.576;2024-01-10T00:00:46;101892.44;;;-5.25;nan
692;BME280;70475;50.084;8.576;2024-01-10T00:03:14;101896.75;;;-5.24;nan
692;BME280;70475;50.084;8.576;2024-01-10T00:05:42;101886.59;;;-5.30;nan
692;BME280;70475;50.084;8.576;2024-01-10T00:08:10;101888.28;;;-5.29;nan
692;BME280;70475;50.084;8.576;2024-01-10T00:10:37;101887.41;;;-5.29;nan
692;BME280;70475;50.084;8.576;2024-01-10T00:13:05;101884.78;;;-5.28;nan
692;BME280;70475;50.084;8.576;2024-01-10T00:15:34;101883.09;;;-5.29;nan
692;BME280;70475;50.084;8.576;2024-01-10T00:18:02;101871.03;;;-5.30;nan
692;BME280;70475;50.084;8.576;2024-01-10T00:20:30;101867.63;;;-5.32;nan
692;BME280;70475;50.084;8.576;2024-01-10T00:22:57;101866.03;;;-5.36;nan
692;BME280;70475;50.084;8.576;2024-01-10T00:25:25;101861.63;;;-5.34;nan
692;BME280;70475;50.084;8.576;2024-01-10T00:27:53;101860.00;;;-5.36;nan
692;BME280;70475;50.084;8.576;2024-01-10T00:30:21;101864.28;;;-5.35;nan
692;BME280;70475;50.084;8.576;2024-01-10T00:32:50;101856.69;;;-5.40;nan
692;BME280;70475;50.084;8.576;2024-01-10T00:35:17;101863.66;;;-5.42;nan
692;BME280;70475;50.084;8.576;2024-01-10T00:37:45;101851.59;;;-5.43;nan
692;BME280;70475;50.084;8.576;2024-01-10T00:40:13;101853.38;;;-5.45;nan
692;BME280;70475;50.084;8.576;2024-01-10T00:42:41;101862.91;;;-5.45;nan
692;BME280;70475;50.084;8.576;2024-01-10T00:45:08;101852.75;;;-5.51;nan
692;BME280;70475;50.084;8.576;2024-01-10T00:47:36;101863.22;;;-5.54;nan
692;BME280;70475;50.084;8.576;2024-01-10T00:50:06;101870.38;;;-5.61;nan
692;BME280;70475;50.084;8.576;2024-01-10T00:52:35;101863.63;;;-5.65;nan
692;BME280;70475;50.084;8.576;2024-01-10T00:55:03;101861.91;;;-5.66;nan
692;BME280;70475;50.084;8.576;2024-01-10T00:57:30;101863.72;;;-5.68;nan
692;BME280;70475;50.084;8.576;2024-01-10T00:59:58;101864.66;;;-5.70;nan
692;BME280;70475;50.084;8.576;2024-01-10T01:02:26;101867.19;;;-5.69;nan
692;BME280;70475;50.084;8.576;2024-01-10T01:04:53;101858.53;;;-5.68;nan
692;BME280;70475;50.084;8.576;2024-01-10T01:07:22;101854.38;;;-5.73;nan
692;BME280;70475;50.084;8.576;2024-01-10T01:09:50;101863.09;;;-5.76;nan
692;BME280;70475;50.084;8.576;2024-01-10T01:12:18;101857.13;;;-5.78;nan
692;BME280;70475;50.084;8.576;2024-01-10T01:14:45;101856.41;;;-5.81;nan
692;BME280;70475;50.084;8.576;2024-01-10T01:17:13;101859.06;;;-5.83;nan
692;BME280;70475;50.084;8.576;2024-01-10T01:19:40;101853.88;;;-5.83;nan
692;BME280;70475;50.084;8.576;2024-01-10T01:22:08;101866.03;;;-5.85;nan
692;BME280;70475;50.084;8.576;2024-01-10T01:24:37;101860.94;;;-5.88;nan
692;BME280;70475;50.084;8.576;2024-01-10T01:27:05;101859.25;;;-5.89;nan
692;BME280;70475;50.084;8.576;2024-01-10T01:29:32;101869.63;;;-5.89;nan
692;BME280;70475;50.084;8.576;2024-01-10T01:32:00;101854.19;;;-5.92;nan
692;BME280;70475;50.084;8.576;2024-01-10T01:34:27;101857.69;;;-5.93;nan
692;BME280;70475;50.084;8.576;2024-01-10T01:36:55;101859.50;;;-5.96;nan
692;BME280;70475;50.084;8.576;2024-01-10T01:39:23;101873.44;;;-5.99;nan
692;BME280;70475;50.084;8.576;2024-01-10T01:41:51;101865.72;;;-6.00;nan
692;BME280;70475;50.084;8.576;2024-01-10T01:44:18;101858.84;;;-6.03;nan
692;BME280;70475;50.084;8.576;2024-01-10T01:46:47;101865.84;;;-6.05;nan
692;BME280;70475;50.084;8.576;2024-01-10T01:49:14;101852.88;;;-6.05;nan
692;BME280;70475;50.084;8.576;2024-01-10T01:51:42;101860.75;;;-6.08;nan
692;BME280;70475;50.084;8.576;2024-01-10T01:54:10;101865.13;;;-6.10;nan
692;BME280;70475;50.084;8.576;2024-01-10T01:56:39;101854.78;;;-6.10;nan
692;BME280;70475;50.084;8.576;2024-01-10T01:59:08;101851.38;;;-6.12;nan
692;BME280;70475;50.084;8.576;2024-01-10T02:01:36;101862.59;;;-6.11;nan
692;BME280;70475;50.084;8.576;2024-01-10T02:04:03;101858.47;;;-6.17;nan
692;BME280;70475;50.084;8.576;2024-01-10T02:06:31;101855.06;;;-6.19;nan
692;BME280;70475;50.084;8.576;2024-01-10T02:08:59;101854.22;;;-6.19;nan
692;BME280;70475;50.084;8.576;2024-01-10T02:11:27;101848.97;;;-6.16;nan
692;BME280;70475;50.084;8.576;2024-01-10T02:13:54;101847.28;;;-6.19;nan
692;BME280;70475;50.084;8.576;2024-01-10T02:16:23;101843.97;;;-6.22;nan
692;BME280;70475;50.084;8.576;2024-01-10T02:18:51;101838.75;;;-6.21;nan
692;BME280;70475;50.084;8.576;2024-01-10T02:21:20;101843.09;;;-6.23;nan
692;BME280;70475;50.084;8.576;2024-01-10T02:23:48;101844.88;;;-6.25;nan
692;BME280;70475;50.084;8.576;2024-01-10T02:26:17;101837.13;;;-6.25;nan
692;BME280;70475;50.084;8.576;2024-01-10T02:28:45;101832.84;;;-6.26;nan
692;BME280;70475;50.084;8.576;2024-01-10T02:31:12;101838.03;;;-6.26;nan
692;BME280;70475;50.084;8.576;2024-01-10T02:33:40;101834.63;;;-6.28;nan
692;BME280;70475;50.084;8.576;2024-01-10T02:36:08;101834.63;;;-6.28;nan
692;BME280;70475;50.084;8.576;2024-01-10T02:38:35;101826.13;;;-6.31;nan
692;BME280;70475;50.084;8.576;2024-01-10T02:41:03;101824.44;;;-6.34;nan
692;BME280;70475;50.084;8.576;2024-01-10T02:43:32;101833.13;;;-6.35;nan
692;BME280;70475;50.084;8.576;2024-01-10T02:46:00;101835.81;;;-6.38;nan
692;BME280;70475;50.084;8.576;2024-01-10T02:48:27;101839.22;;;-6.36;nan
692;BME280;70475;50.084;8.576;2024-01-10T02:50:55;101824.53;;;-6.37;nan
692;BME280;70475;50.084;8.576;2024-01-10T02:53:23;101826.16;;;-6.33;nan
692;BME280;70475;50.084;8.576;2024-01-10T02:55:50;101821.03;;;-6.34;nan
692;BME280;70475;50.084;8.576;2024-01-10T02:58:18;101820.16;;;-6.35;nan
692;BME280;70475;50.084;8.576;2024-01-10T03:00:49;101825.41;;;-6.36;nan
692;BME280;70475;50.084;8.576;2024-01-10T03:03:15;101821.19;;;-6.39;nan
692;BME280;70475;50.084;8.576;2024-01-10T03:05:43;101829.81;;;-6.40;nan
692;BME280;70475;50.084;8.576;2024-01-10T03:08:10;101818.59;;;-6.39;nan
692;BME280;70475;50.084;8.576;2024-01-10T03:10:38;101813.31;;;-6.36;nan
692;BME280;70475;50.084;8.576;2024-01-10T03:13:06;101814.34;;;-6.41;nan
692;BME280;70475;50.084;8.576;2024-01-10T03:15:33;101816.88;;;-6.40;nan
692;BME280;70475;50.084;8.576;2024-01-10T03:18:02;101810.81;;;-6.39;nan
692;BME280;70475;50.084;8.576;2024-01-10T03:20:30;101816.78;;;-6.37;nan
692;BME280;70475;50.084;8.576;2024-01-10T03:22:58;101807.31;;;-6.38;nan
692;BME280;70475;50.084;8.576;2024-01-10T03:25:25;101803.03;;;-6.39;nan
692;BME280;70475;50.084;8.576;2024-01-10T03:27:53;101808.19;;;-6.37;nan
692;BME280;70475;50.084;8.576;2024-01-10T03:30:20;101804.72;;;-6.38;nan
692;BME280;70475;50.084;8.576;2024-01-10T03:32:50;101799.59;;;-6.39;nan
692;BME280;70475;50.084;8.576;2024-01-10T03:35:19;101795.31;;;-6.40;nan
692;BME280;70475;50.084;8.576;2024-01-10T03:37:47;101797.06;;;-6.41;nan
692;BME280;70475;50.084;8.576;2024-01-10T03:40:15;101792.91;;;-6.47;nan
692;BME280;70475;50.084;8.576;2024-01-10T03:42:42;101790.38;;;-6.48;nan
692;BME280;70475;50.084;8.576;2024-01-10T03:45:10;101796.47;;;-6.49;nan
692;BME280;70475;50.084;8.576;2024-01-10T03:47:38;101796.41;;;-6.47;nan
692;BME280;70475;50.084;8.576;2024-01-10T03:50:06;101792.06;;;-6.47;nan
692;BME280;70475;50.084;8.576;2024-01-10T03:52:36;101791.13;;;-6.44;nan
692;BME280;70475;50.084;8.576;2024-01-10T03:55:04;101797.25;;;-6.47;nan
692;BME280;70475;50.084;8.576;2024-01-10T03:57:31;101793.78;;;-6.46;nan
692;BME280;70475;50.084;8.576;2024-01-10T03:59:59;101784.28;;;-6.47;nan
692;BME280;70475;50.084;8.576;2024-01-10T04:02:27;101784.25;;;-6.46;nan
692;BME280;70475;50.084;8.576;2024-01-10T04:04:54;101790.28;;;-6.45;nan
692;BME280;70475;50.084;8.576;2024-01-10T04:07:22;101798.06;;;-6.45;nan
692;BME280;70475;50.084;8.576;2024-01-10T04:09:51;101783.19;;;-6.40;nan
692;BME280;70475;50.084;8.576;2024-01-10T04:12:19;101794.41;;;-6.39;nan
692;BME280;70475;50.084;8.576;2024-01-10T04:14:46;101795.38;;;-6.42;nan
692;BME280;70475;50.084;8.576;2024-01-10T04:17:14;101800.53;;;-6.42;nan
692;BME280;70475;50.084;8.576;2024-01-10T04:19:41;101794.50;;;-6.43;nan
692;BME280;70475;50.084;8.576;2024-01-10T04:22:09;101793.56;;;-6.40;nan
692;BME280;70475;50.084;8.576;2024-01-10T04:24:37;101785.00;;;-6.42;nan
692;BME280;70475;50.084;8.576;2024-01-10T04:27:05;101788.38;;;-6.40;nan
692;BME280;70475;50.084;8.576;2024-01-10T04:29:36;101784.97;;;-6.40;nan
692;BME280;70475;50.084;8.576;2024-01-10T04:32:04;101788.50;;;-6.43;nan
692;BME280;70475;50.084;8.576;2024-01-10T04:34:32;101788.38;;;-6.40;nan
692;BME280;70475;50.084;8.576;2024-01-10T04:37:00;101795.28;;;-6.39;nan
692;BME280;70475;50.084;8.576;2024-01-10T04:39:27;101793.56;;;-6.40;nan
692;BME280;70475;50.084;8.576;2024-01-10T04:41:55;101788.44;;;-6.41;nan
692;BME280;70475;50.084;8.576;2024-01-10T04:44:24;101790.19;;;-6.42;nan
692;BME280;70475;50.084;8.576;2024-01-10T04:46:52;101785.97;;;-6.44;nan
692;BME280;70475;50.084;8.576;2024-01-10T04:49:20;101791.97;;;-6.44;nan
692;BME280;70475;50.084;8.576;2024-01-10T04:51:47;101785.97;;;-6.44;nan
692;BME280;70475;50.084;8.576;2024-01-10T04:54:15;101792.81;;;-6.43;nan
692;BME280;70475;50.084;8.576;2024-01-10T04:56:42;101792.06;;;-6.47;nan
692;BME280;70475;50.084;8.576;2024-01-10T04:59:10;101791.19;;;-6.46;nan
692;BME280;70475;50.084;8.576;2024-01-10T05:01:39;101788.31;;;-6.38;nan
692;BME280;70475;50.084;8.576;2024-01-10T05:04:07;101784.91;;;-6.39;nan
692;BME280;70475;50.084;8.576;2024-01-10T05:06:34;101791.66;;;-6.35;nan
692;BME280;70475;50.084;8.576;2024-01-10T05:09:02;101786.50;;;-6.35;nan
692;BME280;70475;50.084;8.576;2024-01-10T05:11:30;101792.59;;;-6.36;nan
692;BME280;70475;50.084;8.576;2024-01-10T05:13:58;101782.16;;;-6.34;nan
692;BME280;70475;50.084;8.576;2024-01-10T05:16:26;101788.38;;;-6.40;nan
692;BME280;70475;50.084;8.576;2024-01-10T05:18:55;101792.78;;;-6.42;nan
692;BME280;70475;50.084;8.576;2024-01-10T05:21:22;101786.69;;;-6.41;nan
692;BME280;70475;50.084;8.576;2024-01-10T05:23:50;101786.63;;;-6.39;nan
692;BME280;70475;50.084;8.576;2024-01-10T05:26:18;101781.41;;;-6.38;nan
692;BME280;70475;50.084;8.576;2024-01-10T05:28:45;101783.19;;;-6.40;nan
692;BME280;70475;50.084;8.576;2024-01-10T05:31:13;101782.28;;;-6.37;nan
692;BME280;70475;50.084;8.576;2024-01-10T05:33:41;101790.75;;;-6.34;nan
692;BME280;70475;50.084;8.576;2024-01-10T05:36:10;101790.66;;;-6.31;nan
692;BME280;70475;50.084;8.576;2024-01-10T05:38:39;101791.44;;;-6.27;nan
692;BME280;70475;50.084;8.576;2024-01-10T05:41:07;101803.44;;;-6.25;nan
692;BME280;70475;50.084;8.576;2024-01-10T05:43:35;101793.91;;;-6.24;nan
692;BME280;70475;50.084;8.576;2024-01-10T05:46:03;101794.78;;;-6.24;nan
692;BME280;70475;50.084;8.576;2024-01-10T05:48:32;101798.25;;;-6.25;nan
692;BME280;70475;50.084;8.576;2024-01-10T05:51:00;101793.81;;;-6.21;nan
692;BME280;70475;50.084;8.576;2024-01-10T05:53:29;101786.97;;;-6.22;nan
692;BME280;70475;50.084;8.576;2024-01-10T05:55:57;101789.50;;;-6.21;nan
692;BME280;70475;50.084;8.576;2024-01-10T05:58:25;101792.88;;;-6.19;nan
692;BME280;70475;50.084;8.576;2024-01-10T06:00:52;101791.13;;;-6.18;nan
692;BME280;70475;50.084;8.576;2024-01-10T06:03:21;101791.94;;;-6.16;nan
692;BME280;70475;50.084;8.576;2024-01-10T06:05:51;101792.66;;;-6.13;nan
692;BME280;70475;50.084;8.576;2024-01-10T06:08:18;101795.31;;;-6.14;nan
692;BME280;70475;50.084;8.576;2024-01-10T06:10:48;101794.69;;;-6.21;nan
692;BME280;70475;50.084;8.576;2024-01-10T06:13:15;101791.28;;;-6.23;nan
692;BME280;70475;50.084;8.576;2024-01-10T06:15:44;101781.72;;;-6.21;nan
692;BME280;70475;50.084;8.576;2024-01-10T06:18:11;101791.19;;;-6.20;nan
692;BME280;70475;50.084;8.576;2024-01-10T06:20:39;101792.81;;;-6.17;nan
692;BME280;70475;50.084;8.576;2024-01-10T06:23:06;101797.31;;;-6.22;nan
692;BME280;70475;50.084;8.576;2024-01-10T06:25:34;101792.19;;;-6.24;nan
692;BME280;70475;50.084;8.576;2024-01-10T06:28:03;101799.88;;;-6.21;nan
692;BME280;70475;50.084;8.576;2024-01-10T06:30:31;101790.38;;;-6.22;nan
692;BME280;70475;50.084;8.576;2024-01-10T06:32:58;101792.97;;;-6.22;nan
692;BME280;70475;50.084;8.576;2024-01-10T06:35:26;101789.59;;;-6.24;nan
692;BME280;70475;50.084;8.576;2024-01-10T06:37:54;101791.28;;;-6.23;nan
692;BME280;70475;50.084;8.576;2024-01-10T06:40:21;101790.38;;;-6.22;nan
692;BME280;70475;50.084;8.576;2024-01-10T06:42:49;101798.16;;;-6.22;nan
692;BME280;70475;50.084;8.576;2024-01-10T06:45:18;101796.41;;;-6.21;nan
692;BME280;70475;50.084;8.576;2024-01-10T06:47:46;101798.06;;;-6.19;nan
692;BME280;70475;50.084;8.576;2024-01-10T06:50:14;101792.03;;;-6.19;nan
692;BME280;70475;50.084;8.576;2024-01-10T06:52:42;101797.94;;;-6.16;nan
692;BME280;70475;50.084;8.576;2024-01-10T06:55:10;101797.03;;;-6.15;nan
692;BME280;70475;50.084;8.576;2024-01-10T06:57:37;101797.00;;;-6.13;nan
692;BME280;70475;50.084;8.576;2024-01-10T07:00:06;101801.34;;;-6.14;nan
692;BME280;70475;50.084;8.576;2024-01-10T07:02:38;101797.00;;;-6.13;nan
692;BME280;70475;50.084;8.576;2024-01-10T07:05:07;101797.94;;;-6.16;nan
692;BME280;70475;50.084;8.576;2024-01-10T07:07:35;101800.53;;;-6.16;nan
692;BME280;70475;50.084;8.576;2024-01-10T07:10:04;101805.69;;;-6.14;nan
692;BME280;70475;50.084;8.576;2024-01-10T07:12:33;101804.81;;;-6.15;nan
692;BME280;70475;50.084;8.576;2024-01-10T07:15:01;101808.41;;;-6.19;nan
692;BME280;70475;50.084;8.576;2024-01-10T07:17:29;101808.38;;;-6.17;nan
692;BME280;70475;50.084;8.576;2024-01-10T07:19:59;101817.09;;;-6.20;nan
692;BME280;70475;50.084;8.576;2024-01-10T07:22:26;101808.41;;;-6.19;nan
692;BME280;70475;50.084;8.576;2024-01-10T07:24:54;101811.91;;;-6.20;nan
692;BME280;70475;50.084;8.576;2024-01-10T07:27:21;101806.81;;;-6.23;nan
692;BME280;70475;50.084;8.576;2024-01-10T07:29:49;101819.69;;;-6.20;nan
692;BME280;70475;50.084;8.576;2024-01-10T07:32:17;101817.09;;;-6.20;nan
692;BME280;70475;50.084;8.576;2024-01-10T07:34:46;101814.41;;;-6.17;nan
692;BME280;70475;50.084;8.576;2024-01-10T07:37:15;101823.88;;;-6.16;nan
692;BME280;70475;50.084;8.576;2024-01-10T07:39:47;101831.53;;;-6.13;nan
692;BME280;70475;50.084;8.576;2024-01-10T07:42:14;101823.78;;;-6.13;nan
692;BME280;70475;50.084;8.576;2024-01-10T07:44:42;101829.81;;;-6.12;nan
692;BME280;70475;50.084;8.576;2024-01-10T07:47:12;101833.94;;;-6.07;nan
692;BME280;70475;50.084;8.576;2024-01-10T07:49:40;101838.13;;;-6.03;nan
692;BME280;70475;50.084;8.576;2024-01-10T07:52:07;101834.59;;;-6.00;nan
692;BME280;70475;50.084;8.576;2024-01-10T07:54:36;101841.41;;;-5.98;nan
692;BME280;70475;50.084;8.576;2024-01-10T07:57:04;101841.31;;;-5.95;nan
692;BME280;70475;50.084;8.576;2024-01-10T07:59:33;101838.69;;;-5.93;nan
692;BME280;70475;50.084;8.576;2024-01-10T08:02:01;101842.00;;;-5.90;nan
692;BME280;70475;50.084;8.576;2024-01-10T08:04:28;101843.72;;;-5.89;nan
692;BME280;70475;50.084;8.576;2024-01-10T08:06:56;101849.56;;;-5.84;nan
692;BME280;70475;50.084;8.576;2024-01-10T08:09:23;101858.22;;;-5.83;nan
692;BME280;70475;50.084;8.576;2024-01-10T08:11:52;101856.25;;;-5.77;nan
692;BME280;70475;50.084;8.576;2024-01-10T08:14:20;101853.53;;;-5.74;nan
692;BME280;70475;50.084;8.576;2024-01-10T08:16:48;101855.13;;;-5.70;nan
692;BME280;70475;50.084;8.576;2024-01-10T08:19:15;101857.50;;;-5.64;nan
692;BME280;70475;50.084;8.576;2024-01-10T08:21:43;101856.50;;;-5.60;nan
692;BME280;70475;50.084;8.576;2024-01-10T08:24:10;101858.09;;;-5.56;nan
692;BME280;70475;50.084;8.576;2024-01-10T08:26:38;101858.63;;;-5.46;nan
692;BME280;70475;50.084;8.576;2024-01-10T08:29:07;101860.91;;;-5.37;nan
692;BME280;70475;50.084;8.576;2024-01-10T08:31:35;101861.69;;;-5.35;nan
692;BME280;70475;50.084;8.576;2024-01-10T08:34:02;101858.81;;;-5.28;nan
692;BME280;70475;50.084;8.576;2024-01-10T08:36:30;101862.09;;;-5.23;nan
692;BME280;70475;50.084;8.576;2024-01-10T08:38:57;101866.50;;;-5.25;nan
692;BME280;70475;50.084;8.576;2024-01-10T08:41:25;101870.59;;;-5.18;nan
692;BME280;70475;50.084;8.576;2024-01-10T08:43:53;101865.56;;;-5.22;nan
692;BME280;70475;50.084;8.576;2024-01-10T08:46:22;101867.09;;;-5.17;nan
692;BME280;70475;50.084;8.576;2024-01-10T08:48:51;101866.16;;;-5.16;nan
692;BME280;70475;50.084;8.576;2024-01-10T08:51:18;101871.19;;;-5.11;nan
692;BME280;70475;50.084;8.576;2024-01-10T08:53:46;101869.31;;;-5.06;nan
692;BME280;70475;50.084;8.576;2024-01-10T08:56:15;101867.63;;;-5.09;nan
692;BME280;70475;50.084;8.576;2024-01-10T08:58:42;101871.84;;;-5.05;nan
692;BME280;70475;50.084;8.576;2024-01-10T09:01:10;101875.22;;;-5.03;nan
692;BME280;70475;50.084;8.576;2024-01-10T09:03:39;101880.41;;;-5.03;nan
692;BME280;70475;50.084;8.576;2024-01-10T09:06:07;101887.19;;;-4.99;nan
692;BME280;70475;50.084;8.576;2024-01-10T09:08:37;101881.91;;;-4.96;nan
692;BME280;70475;50.084;8.576;2024-01-10T09:11:05;101882.56;;;-4.91;nan
692;BME280;70475;50.084;8.576;2024-01-10T09:13:33;101885.03;;;-4.88;nan
692;BME280;70475;50.084;8.576;2024-01-10T09:16:01;101882.22;;;-4.82;nan
692;BME280;70475;50.084;8.576;2024-01-10T09:18:28;101888.00;;;-4.74;nan
692;BME280;70475;50.084;8.576;2024-01-10T09:20:57;101889.56;;;-4.70;nan
692;BME280;70475;50.084;8.576;2024-01-10T09:23:25;101886.00;;;-4.67;nan
692;BME280;70475;50.084;8.576;2024-01-10T09:25:53;101889.41;;;-4.65;nan
692;BME280;70475;50.084;8.576;2024-01-10T09:28:21;101890.81;;;-4.57;nan
692;BME280;70475;50.084;8.576;2024-01-10T09:30:49;101888.59;;;-4.44;nan
692;BME280;70475;50.084;8.576;2024-01-10T09:33:18;101893.84;;;-4.46;nan
692;BME280;70475;50.084;8.576;2024-01-10T09:35:45;101888.59;;;-4.44;nan
692;BME280;70475;50.084;8.576;2024-01-10T09:38:14;101898.75;;;-4.38;nan
692;BME280;70475;50.084;8.576;2024-01-10T09:40:43;101895.97;;;-4.34;nan
692;BME280;70475;50.084;8.576;2024-01-10T09:43:11;101901.03;;;-4.31;nan
692;BME280;70475;50.084;8.576;2024-01-10T09:45:43;101900.81;;;-4.25;nan
692;BME280;70475;50.084;8.576;2024-01-10T09:48:15;101899.06;;;-4.24;nan
692;BME280;70475;50.084;8.576;2024-01-10T09:50:43;101905.81;;;-4.20;nan
692;BME280;70475;50.084;8.576;2024-01-10T09:53:20;101902.94;;;-4.12;nan
692;BME280;70475;50.084;8.576;2024-01-10T09:55:50;101903.44;;;-4.03;nan
692;BME280;70475;50.084;8.576;2024-01-10T09:58:18;101904.00;;;-3.96;nan
692;BME280;70475;50.084;8.576;2024-01-10T10:00:45;101901.78;;;-3.84;nan
692;BME280;70475;50.084;8.576;2024-01-10T10:03:14;101903.66;;;-3.87;nan
692;BME280;70475;50.084;8.576;2024-01-10T10:05:43;101892.47;;;-3.89;nan
692;BME280;70475;50.084;8.576;2024-01-10T10:08:12;101902.53;;;-3.82;nan
692;BME280;70475;50.084;8.576;2024-01-10T10:10:42;101898.13;;;-3.80;nan
692;BME280;70475;50.084;8.576;2024-01-10T10:13:23;101890.28;;;-3.78;nan
692;BME280;70475;50.084;8.576;2024-01-10T10:15:57;101888.97;;;-3.88;nan
692;BME280;70475;50.084;8.576;2024-01-10T10:18:26;101891.81;;;-3.74;nan
692;BME280;70475;50.084;8.576;2024-01-10T10:21:09;101890.63;;;-3.66;nan
692;BME280;70475;50.084;8.576;2024-01-10T10:23:39;101891.88;;;-3.54;nan
692;BME280;70475;50.084;8.576;2024-01-10T10:26:12;101891.69;;;-3.50;nan
692;BME280;70475;50.084;8.576;2024-01-10T10:28:46;101891.88;;;-3.54;nan
692;BME280;70475;50.084;8.576;2024-01-10T10:31:14;101881.03;;;-3.65;nan
692;BME280;70475;50.084;8.576;2024-01-10T10:33:42;101878.50;;;-3.67;nan
692;BME280;70475;50.084;8.576;2024-01-10T10:36:10;101871.81;;;-3.72;nan
692;BME280;70475;50.084;8.576;2024-01-10T10:38:40;101875.25;;;-3.72;nan
692;BME280;70475;50.084;8.576;2024-01-10T10:41:08;101874.53;;;-3.55;nan
692;BME280;70475;50.084;8.576;2024-01-10T10:43:39;101870.53;;;-3.42;nan
692;BME280;70475;50.084;8.576;2024-01-10T10:46:09;101871.75;;;-3.31;nan
692;BME280;70475;50.084;8.576;2024-01-10T10:48:38;101868.63;;;-3.39;nan
692;BME280;70475;50.084;8.576;2024-01-10T10:51:08;101868.44;;;-3.34;nan
692;BME280;70475;50.084;8.576;2024-01-10T10:53:37;101867.41;;;-3.50;nan
692;BME280;70475;50.084;8.576;2024-01-10T10:56:07;101858.66;;;-3.49;nan
692;BME280;70475;50.084;8.576;2024-01-10T10:58:39;101857.56;;;-3.44;nan
692;BME280;70475;50.084;8.576;2024-01-10T11:01:08;101857.44;;;-3.41;nan
692;BME280;70475;50.084;8.576;2024-01-10T11:03:37;101860.56;;;-3.33;nan
692;BME280;70475;50.084;8.576;2024-01-10T11:06:06;101861.41;;;-3.32;nan
692;BME280;70475;50.084;8.576;2024-01-10T11:08:37;101861.41;;;-3.32;nan
692;BME280;70475;50.084;8.576;2024-01-10T11:11:13;101864.78;;;-3.30;nan
692;BME280;70475;50.084;8.576;2024-01-10T11:14:01;101866.72;;;-3.15;nan
692;BME280;70475;50.084;8.576;2024-01-10T11:16:51;101868.28;;;-3.11;nan
692;BME280;70475;50.084;8.576;2024-01-10T11:22:41;101862.72;;;-3.04;nan
692;BME280;70475;50.084;8.576;2024-01-10T11:25:11;101859.16;;;-3.01;nan
692;BME280;70475;50.084;8.576;2024-01-10T11:27:39;101846.25;;;-3.04;nan
692;BME280;70475;50.084;8.576;2024-01-10T11:30:10;101848.72;;;-3.01;nan
692;BME280;70475;50.084;8.576;2024-01-10T11:32:38;101853.75;;;-2.97;nan
692;BME280;70475;50.084;8.576;2024-01-10T11:35:18;101845.00;;;-2.96;nan
692;BME280;70475;50.084;8.576;2024-01-10T11:37:47;101853.88;;;-2.81;nan
692;BME280;70475;50.084;8.576;2024-01-10T11:40:23;101846.84;;;-2.42;nan
692;BME280;70475;50.084;8.576;2024-01-10T11:43:13;101846.41;;;-2.33;nan
692;BME280;70475;50.084;8.576;2024-01-10T11:45:51;101844.84;;;-2.37;nan
692;BME280;70475;50.084;8.576;2024-01-10T11:48:26;101845.22;;;-2.63;nan
692;BME280;70475;50.084;8.576;2024-01-10T11:50:54;101842.31;;;-2.76;nan
692;BME280;70475;50.084;8.576;2024-01-10T11:53:39;101842.53;;;-2.62;nan
692;BME280;70475;50.084;8.576;2024-01-10T11:56:10;101837.25;;;-2.60;nan
692;BME280;70475;50.084;8.576;2024-01-10T11:58:52;101842.25;;;-2.74;nan
692;BME280;70475;50.084;8.576;2024-01-10T12:01:22;101833.81;;;-2.79;nan
692;BME280;70475;50.084;8.576;2024-01-10T12:03:53;101831.53;;;-2.68;nan
692;BME280;70475;50.084;8.576;2024-01-10T12:06:36;101828.38;;;-2.56;nan
692;BME280;70475;50.084;8.576;2024-01-10T12:09:04;101827.69;;;-2.60;nan
692;BME280;70475;50.084;8.576;2024-01-10T12:11:34;101834.66;;;-2.60;nan
692;BME280;70475;50.084;8.576;2024-01-10T12:14:02;101830.50;;;-2.64;nan
692;BME280;70475;50.084;8.576;2024-01-10T12:16:32;101830.97;;;-2.56;nan
692;BME280;70475;50.084;8.576;2024-01-10T12:19:00;101824.34;;;-2.45;nan
692;BME280;70475;50.084;8.576;2024-01-10T12:21:27;101821.06;;;-2.48;nan
692;BME280;70475;50.084;8.576;2024-01-10T12:23:56;101821.44;;;-2.39;nan
692;BME280;70475;50.084;8.576;2024-01-10T12:26:24;101817.78;;;-2.35;nan
692;BME280;70475;50.084;8.576;2024-01-10T12:28:55;101824.41;;;-2.28;nan
692;BME280;70475;50.084;8.576;2024-01-10T12:31:23;101817.78;;;-2.35;nan
692;BME280;70475;50.084;8.576;2024-01-10T12:33:54;101819.09;;;-2.26;nan
692;BME280;70475;50.084;8.576;2024-01-10T12:36:22;101820.13;;;-2.12;nan
692;BME280;70475;50.084;8.576;2024-01-10T12:38:50;101817.97;;;-2.03;nan
692;BME280;70475;50.084;8.576;2024-01-10T12:41:19;101821.06;;;-1.95;nan
692;BME280;70475;50.084;8.576;2024-01-10T12:43:49;101813.63;;;-1.86;nan
692;BME280;70475;50.084;8.576;2024-01-10T12:46:17;101818.06;;;-1.71;nan
692;BME280;70475;50.084;8.576;2024-01-10T12:48:45;101814.84;;;-1.59;nan
692;BME280;70475;50.084;8.576;2024-01-10T12:51:14;101818.38;;;-1.60;nan
692;BME280;70475;50.084;8.576;2024-01-10T12:53:43;101809.59;;;-1.59;nan
692;BME280;70475;50.084;8.576;2024-01-10T12:56:11;101819.34;;;-1.45;nan
692;BME280;70475;50.084;8.576;2024-01-10T12:58:41;101818.50;;;-1.46;nan
692;BME280;70475;50.084;8.576;2024-01-10T13:01:09;101816.03;;;-1.49;nan
692;BME280;70475;50.084;8.576;2024-01-10T13:03:37;101810.63;;;-1.61;nan
692;BME280;70475;50.084;8.576;2024-01-10T13:06:05;101812.69;;;-1.68;nan
692;BME280;70475;50.084;8.576;2024-01-10T13:08:34;101810.78;;;-1.64;nan
692;BME280;70475;50.084;8.576;2024-01-10T13:11:02;101796.63;;;-1.60;nan
692;BME280;70475;50.084;8.576;2024-01-10T13:13:37;101803.47;;;-1.58;nan
692;BME280;70475;50.084;8.576;2024-01-10T13:16:06;101799.56;;;-1.49;nan
692;BME280;70475;50.084;8.576;2024-01-10T13:18:33;101795.06;;;-1.47;nan
692;BME280;70475;50.084;8.576;2024-01-10T13:21:01;101793.03;;;-1.58;nan
692;BME280;70475;50.084;8.576;2024-01-10T13:23:29;101794.63;;;-1.55;nan
692;BME280;70475;50.084;8.576;2024-01-10T13:25:58;101797.84;;;-1.50;nan
692;BME280;70475;50.084;8.576;2024-01-10T13:28:26;101800.84;;;-1.41;nan
692;BME280;70475;50.084;8.576;2024-01-10T13:30:54;101799.59;;;-1.34;nan
692;BME280;70475;50.084;8.576;2024-01-10T13:33:23;101795.28;;;-1.35;nan
692;BME280;70475;50.084;8.576;2024-01-10T13:35:52;101795.91;;;-1.30;nan
692;BME280;70475;50.084;8.576;2024-01-10T13:38:19;101802.66;;;-1.26;nan
692;BME280;70475;50.084;8.576;2024-01-10T13:40:50;101800.19;;;-1.29;nan
692;BME280;70475;50.084;8.576;2024-01-10T13:43:19;101801.06;;;-1.28;nan